To NAV CANADA Home Page Login to a new session Search on AWWS site Disclaimer Vers la page française équivalente Tips FAQ What's new on the site To the Forecasts and Observations / NOTAM section To "File a Flight Plan" website Publications and other links Update of the User's profile FIC Telephone Numbers My Weather Data Folder Route Weather Data Regional Weather Data Local Weather Data To the Forecasts and Observations / NOTAM section
Request Generated 07/16/2019 at 13:20:53 UTC . Weather information available at that time is displayed.

METAR/TAF

WIARTON/ON    

METAR CYVV 161300Z 23014KT 15SM BKN050 BKN250 24/19 A2992 RMK SC6CI1 WND ESTD SLP132 DENSITY ALT 2000FT=
METAR CYVV 161200Z 23014KT 15SM FEW018 BKN090 BKN250 24/19 A2990 RMK SC1AC5CI1 WND ESTD SLP126 DENSITY ALT 2000FT=
METAR CYVV 161100Z 23009KT 15SM FEW050 SCT150 BKN250 24/19 A2989 RMK SC1AC2CI2 WND ESTD SLP120 DENSITY ALT 2000FT=

TAF CYVV 161038Z 1611/1623 23012KT P6SM FEW050 SCT150 BKN250
BECMG 1612/1614 24015G25KT
FM161600 24015G25KT P6SM SCT040 TEMPO 1616/1621 BKN040
FM162100 23015G25KT P6SM SCT020 BKN050 TEMPO 1621/1623 P6SM -SHRA
BKN020 BKN050
BECMG 1621/1623 23012KT
RMK NXT FCST BY 161400Z=
Your time UTC time
Weather data provided by Environment Canada and NAV CANADA